createdAt,value
2017-07-20T19:21:17.897Z,71.02
2017-07-20T19:22:17.899Z,71.22
2017-07-20T19:23:17.896Z,71.31
2017-07-20T19:24:17.897Z,71.41
2017-07-20T19:25:17.893Z,71.41
2017-07-20T19:26:17.894Z,71.5
2017-07-20T19:27:17.890Z,71.5
2017-07-20T19:28:17.891Z,71.7
2017-07-20T19:29:17.889Z,71.28
2017-07-20T19:30:17.594Z,70.98
2017-07-20T19:31:17.887Z,70.98
2017-07-20T19:32:17.885Z,71.28
2017-07-20T19:33:17.881Z,71.18
2017-07-20T19:34:17.980Z,71.08
2017-07-20T19:35:17.880Z,70.98
2017-07-20T19:36:17.879Z,71.08
2017-07-20T19:37:17.881Z,71.18
2017-07-20T19:38:17.876Z,71.37
2017-07-20T19:39:17.974Z,71.08
2017-07-20T19:40:17.876Z,71.56
2017-07-20T19:41:17.873Z,71.76
2017-07-20T19:42:17.870Z,71.08
2017-07-20T19:43:17.869Z,71.66
2017-07-20T19:44:17.871Z,71.66
2017-07-20T19:45:17.868Z,71.66
2017-07-20T19:46:17.868Z,72.05
2017-07-20T19:47:17.865Z,71.76
2017-07-20T19:48:17.872Z,71.85
2017-07-20T19:49:17.862Z,71.85
2017-07-20T19:50:17.555Z,71.85
2017-07-20T19:51:17.856Z,71.76
2017-07-20T19:52:17.552Z,72.01
2017-07-20T19:53:17.855Z,72.59
2017-07-20T19:54:17.858Z,72.78
2017-07-20T19:55:17.852Z,71.72
2017-07-20T19:56:17.853Z,72.59
2017-07-20T19:57:17.854Z,72.3
2017-07-20T19:58:17.848Z,72.88
2017-07-20T19:59:17.850Z,73.36
2017-07-20T20:00:18.003Z,73.36
2017-07-20T20:01:17.848Z,73.36
2017-07-20T20:02:17.845Z,73.16
2017-07-20T20:03:17.845Z,73.84
2017-07-20T20:04:17.842Z,74.03
2017-07-20T20:05:17.840Z,73.94
2017-07-20T20:06:17.840Z,74.13
2017-07-20T20:07:17.838Z,74.38
2017-07-20T20:08:17.834Z,74.99
2017-07-20T20:09:17.941Z,74.86
2017-07-20T20:10:17.981Z,74.76
2017-07-20T20:11:17.834Z,74.76
2017-07-20T20:12:17.931Z,74.96
2017-07-20T20:13:17.827Z,75.15
2017-07-20T20:14:17.938Z,75.24
2017-07-20T20:15:17.517Z,75.24
2017-07-20T20:16:17.823Z,75.63
2017-07-20T20:17:17.827Z,75.34
2017-07-20T20:18:17.830Z,75.54
2017-07-20T20:19:17.918Z,76.11
2017-07-20T20:20:17.822Z,75.82
2017-07-20T20:21:17.821Z,75.92
2017-07-20T20:22:17.917Z,75.82
2017-07-20T20:23:17.817Z,76.01
2017-07-20T20:24:17.815Z,75.92
2017-07-20T20:25:17.813Z,76.21
2017-07-20T20:26:17.812Z,76.01
2017-07-20T20:27:17.813Z,75.92
2017-07-20T20:28:17.807Z,75.92
2017-07-20T20:29:17.811Z,75.82
2017-07-20T20:30:17.808Z,76.59
2017-07-20T20:31:17.805Z,76.5
2017-07-20T20:32:17.899Z,76.59
2017-07-20T20:33:17.901Z,76.5
2017-07-20T20:34:17.797Z,76.69
2017-07-20T20:35:17.898Z,76.5
2017-07-20T20:36:17.803Z,76.59
2017-07-20T20:37:17.897Z,76.21
2017-07-20T20:38:17.798Z,76.4
2017-07-20T20:39:17.797Z,76.4
2017-07-20T20:40:17.897Z,76.88
2017-07-20T20:41:17.791Z,76.98
2017-07-20T20:42:17.789Z,77.33
2017-07-20T20:43:17.793Z,77.13
2017-07-20T20:44:17.784Z,77.17
2017-07-20T20:45:17.785Z,77.04
2017-07-20T20:46:17.881Z,77.23
2017-07-20T20:47:17.779Z,77.33
2017-07-20T20:48:17.782Z,77.13
2017-07-20T20:49:17.778Z,77.42
2017-07-20T20:50:17.779Z,77.42
2017-07-20T20:51:17.772Z,77.33
2017-07-20T20:52:17.774Z,77.33
2017-07-20T20:53:17.774Z,77.23
2017-07-20T20:54:17.778Z,77.51
2017-07-20T20:55:17.869Z,77.61
2017-07-20T20:56:17.772Z,77.65
2017-07-20T20:57:17.774Z,77.61
2017-07-20T20:58:17.765Z,78.09
2017-07-20T20:59:17.764Z,77.81
2017-07-20T21:00:17.767Z,78.58
2017-07-20T21:01:17.760Z,77.94
2017-07-20T21:02:17.455Z,78.48
2017-07-20T21:03:17.762Z,78.38
2017-07-20T21:04:17.757Z,78.38
2017-07-20T21:05:17.755Z,78.61
2017-07-20T21:06:18.007Z,78.81
2017-07-20T21:07:17.754Z,78.71
2017-07-20T21:08:17.751Z,78.61
2017-07-20T21:09:17.751Z,78.81
2017-07-20T21:10:17.441Z,78.9
2017-07-20T21:11:17.441Z,78.9
2017-07-20T21:12:17.746Z,78.71
2017-07-20T21:13:17.745Z,79
2017-07-20T21:14:17.747Z,78.81
2017-07-20T21:15:17.740Z,78.71
2017-07-20T21:16:17.740Z,78.42
2017-07-20T21:17:17.735Z,78.61
2017-07-20T21:18:17.743Z,78.71
2017-07-20T21:19:17.734Z,78.81
2017-07-20T21:20:17.733Z,78.81
2017-07-20T21:21:17.731Z,79
2017-07-20T21:22:17.729Z,78.9
2017-07-20T21:23:17.521Z,78.9
2017-07-20T21:24:17.728Z,79.28
2017-07-20T21:25:17.723Z,79.28
2017-07-20T21:26:17.722Z,79.19
2017-07-20T21:27:17.416Z,79.19
2017-07-20T21:28:17.718Z,79.38
2017-07-20T21:29:17.725Z,79.86
2017-07-20T21:30:17.720Z,79.96
2017-07-20T21:31:17.717Z,80.35
2017-07-20T21:32:17.713Z,80.35
2017-07-20T21:33:17.717Z,80.25
2017-07-20T21:34:17.410Z,80.54
2017-07-20T21:35:17.714Z,80.63
2017-07-20T21:36:17.706Z,80.83
2017-07-20T21:37:17.399Z,80.79
2017-07-20T21:38:17.704Z,80.79
2017-07-20T21:39:17.397Z,81.07
2017-07-20T21:40:17.702Z,81.17
2017-07-20T21:41:17.704Z,81.07
2017-07-20T21:42:17.796Z,81.17
2017-07-20T21:43:17.694Z,81.84
2017-07-20T21:44:17.696Z,81.75
2017-07-20T21:45:17.699Z,81.65
2017-07-20T21:46:17.692Z,81.94
2017-07-20T21:47:17.690Z,81.84
2017-07-20T21:48:17.690Z,82.32
2017-07-20T21:49:17.688Z,82.32
2017-07-20T21:50:17.684Z,82.32
2017-07-20T21:51:17.686Z,82.61
2017-07-20T21:52:17.781Z,82.9
2017-07-20T21:53:17.681Z,83.09
2017-07-20T21:54:17.674Z,82.9
2017-07-20T21:55:17.778Z,83
2017-07-20T21:56:17.677Z,83
2017-07-20T21:57:17.675Z,82.96
2017-07-20T21:58:17.691Z,82.9
2017-07-20T21:59:17.672Z,83.48
2017-07-20T22:00:17.669Z,83.34
2017-07-20T22:01:17.361Z,83.53
2017-07-20T22:02:17.361Z,83.48
2017-07-20T22:03:17.359Z,83.63
2017-07-20T22:04:17.358Z,83.63
2017-07-20T22:05:17.355Z,83.44
2017-07-20T22:06:17.354Z,83.73
2017-07-20T22:07:17.351Z,83.44
2017-07-20T22:08:17.355Z,83.73
2017-07-20T22:09:17.349Z,84.3
2017-07-20T22:10:17.497Z,83.83
2017-07-20T22:11:17.652Z,83.92
2017-07-20T22:12:17.750Z,83.92
2017-07-20T22:13:17.648Z,83.92
2017-07-20T22:14:17.647Z,84.5
2017-07-20T22:15:17.593Z,84.59
2017-07-20T22:16:17.337Z,84.5
2017-07-20T22:17:17.642Z,84.59
2017-07-20T22:18:17.343Z,84.4
2017-07-20T22:19:17.639Z,84.69
2017-07-20T22:20:17.638Z,84.21
2017-07-20T22:21:17.335Z,84.4
2017-07-20T22:22:17.636Z,84.5
2017-07-20T22:23:17.325Z,84.3
2017-07-20T22:24:17.630Z,84.78
2017-07-20T22:25:17.422Z,84.78
2017-07-20T22:26:17.637Z,85.17
2017-07-20T22:27:17.319Z,85.07
2017-07-20T22:28:17.626Z,84.88
2017-07-20T22:29:17.625Z,85.17
2017-07-20T22:30:17.719Z,84.88
2017-07-20T22:31:17.313Z,84.98
2017-07-20T22:32:17.313Z,84.69
2017-07-20T22:33:17.619Z,84.84
2017-07-20T22:34:17.619Z,84.69
2017-07-20T22:35:17.712Z,84.94
2017-07-20T22:36:17.612Z,85.41
2017-07-20T22:37:17.616Z,85.41
2017-07-20T22:38:17.306Z,85.32
2017-07-20T22:39:17.610Z,85.32
2017-07-20T22:40:17.602Z,84.74
2017-07-20T22:41:17.605Z,85.41
2017-07-20T22:42:17.605Z,85.51
2017-07-20T22:43:17.747Z,85.13
2017-07-20T22:44:17.599Z,85.22
2017-07-20T22:45:17.593Z,84.94
2017-07-20T22:46:17.596Z,84.45
2017-07-20T22:47:17.589Z,85.13
2017-07-20T22:48:17.693Z,84.55
2017-07-20T22:49:17.738Z,84.94
2017-07-20T22:50:17.598Z,84.94
2017-07-20T22:51:17.584Z,84.84
2017-07-20T22:52:17.585Z,84.94
2017-07-20T22:53:17.578Z,84.94
2017-07-20T22:54:17.581Z,84.84
2017-07-20T22:55:17.270Z,85.03
2017-07-20T22:56:17.577Z,85.03
2017-07-20T22:57:17.576Z,85.13
2017-07-20T22:58:17.574Z,84.99
2017-07-20T22:59:17.573Z,85.22
2017-07-20T23:00:17.671Z,85.22
2017-07-20T23:01:17.262Z,84.94
2017-07-20T23:02:17.569Z,84.99
2017-07-20T23:03:17.562Z,85.03
2017-07-20T23:04:17.565Z,84.84
2017-07-20T23:05:17.563Z,84.94
2017-07-20T23:06:17.406Z,84.99
2017-07-20T23:07:17.555Z,84.99
2017-07-20T23:08:17.561Z,84.99
2017-07-20T23:09:17.557Z,84.41
2017-07-20T23:10:17.553Z,84.6
2017-07-20T23:11:17.702Z,84.99
2017-07-20T23:12:17.247Z,84.89
2017-07-20T23:13:17.546Z,84.89
2017-07-20T23:14:17.547Z,84.8
2017-07-20T23:15:17.543Z,85.13
2017-07-20T23:16:17.545Z,84.89
2017-07-20T23:17:17.542Z,84.8
2017-07-20T23:18:17.541Z,84.89
2017-07-20T23:19:17.543Z,84.89
2017-07-20T23:20:17.382Z,84.7
2017-07-20T23:21:17.536Z,84.94
2017-07-20T23:22:17.531Z,84.94
2017-07-20T23:23:17.528Z,85.32
2017-07-20T23:24:17.528Z,85.32
2017-07-20T23:25:17.224Z,85.13
2017-07-20T23:26:17.523Z,85.13
2017-07-20T23:27:17.524Z,84.74
2017-07-20T23:28:17.527Z,84.84
2017-07-20T23:29:17.522Z,85.03
2017-07-20T23:30:17.517Z,84.55
2017-07-20T23:31:17.518Z,84.26
2017-07-20T23:32:17.515Z,84.36
2017-07-20T23:33:17.511Z,84.36
2017-07-20T23:34:17.512Z,84.45
2017-07-20T23:35:17.510Z,84.64
2017-07-20T23:36:17.607Z,84.45
2017-07-20T23:37:17.504Z,84.26
2017-07-20T23:38:17.505Z,84.45
2017-07-20T23:39:17.503Z,83.97
2017-07-20T23:40:17.700Z,84.07
2017-07-20T23:41:17.499Z,83.78
2017-07-20T23:42:17.501Z,83.97
2017-07-20T23:43:17.498Z,84.55
2017-07-20T23:44:17.492Z,84.26
2017-07-20T23:45:17.499Z,84.69
2017-07-20T23:46:17.489Z,84.69
2017-07-20T23:47:17.488Z,84.21
2017-07-20T23:48:17.487Z,84.3
2017-07-20T23:49:17.486Z,84.4
2017-07-20T23:50:17.486Z,84.11
2017-07-20T23:51:17.478Z,84.5
2017-07-20T23:52:17.581Z,84.11
2017-07-20T23:53:17.578Z,84.21
2017-07-20T23:54:17.476Z,84.59
2017-07-20T23:55:17.472Z,84.59
2017-07-20T23:56:17.473Z,84.5
2017-07-20T23:57:17.497Z,84.36
2017-07-20T23:58:17.470Z,84.36
2017-07-20T23:59:17.466Z,83.97
